sensor_id;sensor_type;location;lat;lon;timestamp;pressure;altitude;pressure_sealevel;temperature;humidity
13661;BME280;6903;49.480;11.102;2023-01-26T00:01:49;98466.06;;;1.11;100.00
13661;BME280;6903;49.480;11.102;2023-01-26T00:04:14;98467.75;;;1.14;100.00
13661;BME280;6903;49.480;11.102;2023-01-26T00:06:39;98459.03;;;1.15;100.00
13661;BME280;6903;49.480;11.102;2023-01-26T00:09:05;98455.63;;;1.13;100.00
13661;BME280;6903;49.480;11.102;2023-01-26T00:11:30;98453.03;;;1.13;100.00
13661;BME280;6903;49.480;11.102;2023-01-26T00:13:57;98458.19;;;1.14;100.00
13661;BME280;6903;49.480;11.102;2023-01-26T00:16:23;98449.50;;;1.15;100.00
13661;BME280;6903;49.480;11.102;2023-01-26T00:18:48;98443.50;;;1.13;100.00
13661;BME280;6903;49.480;11.102;2023-01-26T00:21:16;98440.06;;;1.13;100.00
13661;BME280;6903;49.480;11.102;2023-01-26T00:23:42;98437.94;;;0.99;100.00
13661;BME280;6903;49.480;11.102;2023-01-26T00:26:09;98433.69;;;0.97;100.00
13661;BME280;6903;49.480;11.102;2023-01-26T00:28:35;98419.78;;;0.99;100.00
13661;BME280;6903;49.480;11.102;2023-01-26T00:31:05;98417.91;;;1.03;100.00
13661;BME280;6903;49.480;11.102;2023-01-26T00:33:31;98405.66;;;1.06;100.00
13661;BME280;6903;49.480;11.102;2023-01-26T00:35:56;98399.47;;;1.10;100.00
13661;BME280;6903;49.480;11.102;2023-01-26T00:38:22;98394.16;;;1.13;100.00
13661;BME280;6903;49.480;11.102;2023-01-26T00:40:47;98401.78;;;1.18;100.00
13661;BME280;6903;49.480;11.102;2023-01-26T00:43:12;98390.34;;;1.23;100.00
13661;BME280;6903;49.480;11.102;2023-01-26T00:45:38;98388.38;;;1.30;100.00
13661;BME280;6903;49.480;11.102;2023-01-26T00:48:03;98384.13;;;1.27;100.00
13661;BME280;6903;49.480;11.102;2023-01-26T00:50:28;98385.84;;;1.28;100.00
13661;BME280;6903;49.480;11.102;2023-01-26T00:52:54;98384.00;;;1.32;100.00
13661;BME280;6903;49.480;11.102;2023-01-26T00:55:19;98382.28;;;1.31;100.00
13661;BME280;6903;49.480;11.102;2023-01-26T00:57:45;98382.69;;;1.43;100.00
13661;BME280;6903;49.480;11.102;2023-01-26T01:00:10;98371.34;;;1.46;100.00
13661;BME280;6903;49.480;11.102;2023-01-26T01:02:41;98371.22;;;1.49;100.00
13661;BME280;6903;49.480;11.102;2023-01-26T01:05:06;98371.06;;;1.54;100.00
13661;BME280;6903;49.480;11.102;2023-01-26T01:07:32;98362.47;;;1.52;100.00
13661;BME280;6903;49.480;11.102;2023-01-26T01:09:57;98356.31;;;1.54;100.00
13661;BME280;6903;49.480;11.102;2023-01-26T01:12:24;98355.53;;;1.52;100.00
13661;BME280;6903;49.480;11.102;2023-01-26T01:14:50;98361.50;;;1.54;100.00
13661;BME280;6903;49.480;11.102;2023-01-26T01:17:15;98359.78;;;1.55;100.00
13661;BME280;6903;49.480;11.102;2023-01-26T01:19:41;98358.84;;;1.56;100.00
13661;BME280;6903;49.480;11.102;2023-01-26T01:22:06;98352.53;;;1.63;100.00
13661;BME280;6903;49.480;11.102;2023-01-26T01:24:32;98349.03;;;1.64;100.00
13661;BME280;6903;49.480;11.102;2023-01-26T01:26:59;98351.56;;;1.65;100.00
13661;BME280;6903;49.480;11.102;2023-01-26T01:29:24;98344.69;;;1.64;100.00
13661;BME280;6903;49.480;11.102;2023-01-26T01:31:49;98343.03;;;1.62;100.00
13661;BME280;6903;49.480;11.102;2023-01-26T01:34:15;98343.81;;;1.64;100.00
13661;BME280;6903;49.480;11.102;2023-01-26T01:36:40;98343.81;;;1.64;100.00
13661;BME280;6903;49.480;11.102;2023-01-26T01:39:06;98338.63;;;1.64;100.00
13661;BME280;6903;49.480;11.102;2023-01-26T01:41:31;98342.91;;;1.65;100.00
13661;BME280;6903;49.480;11.102;2023-01-26T01:44:16;98345.50;;;1.65;100.00
13661;BME280;6903;49.480;11.102;2023-01-26T01:46:46;98347.34;;;1.63;100.00
13661;BME280;6903;49.480;11.102;2023-01-26T01:49:18;98340.44;;;1.62;100.00
13661;BME280;6903;49.480;11.102;2023-01-26T01:51:51;98336.94;;;1.63;100.00
13661;BME280;6903;49.480;11.102;2023-01-26T01:54:22;98335.22;;;1.62;100.00
13661;BME280;6903;49.480;11.102;2023-01-26T01:56:55;98328.34;;;1.61;100.00
13661;BME280;6903;49.480;11.102;2023-01-26T01:59:22;98327.50;;;1.60;100.00
13661;BME280;6903;49.480;11.102;2023-01-26T02:01:49;98335.16;;;1.63;100.00
13661;BME280;6903;49.480;11.102;2023-01-26T02:04:16;98337.03;;;1.60;100.00
13661;BME280;6903;49.480;11.102;2023-01-26T02:06:49;98338.00;;;1.57;100.00
13661;BME280;6903;49.480;11.102;2023-01-26T02:09:16;98339.81;;;1.55;100.00
13661;BME280;6903;49.480;11.102;2023-01-26T02:12:02;98332.06;;;1.54;100.00
13661;BME280;6903;49.480;11.102;2023-01-26T02:14:29;98328.63;;;1.53;100.00
13661;BME280;6903;49.480;11.102;2023-01-26T02:16:56;98327.72;;;1.54;100.00
13661;BME280;6903;49.480;11.102;2023-01-26T02:19:43;98327.72;;;1.54;100.00
13661;BME280;6903;49.480;11.102;2023-01-26T02:22:18;98326.13;;;1.50;100.00
13661;BME280;6903;49.480;11.102;2023-01-26T02:24:44;98327.13;;;1.48;100.00
13661;BME280;6903;49.480;11.102;2023-01-26T02:27:09;98329.84;;;1.44;100.00
13661;BME280;6903;49.480;11.102;2023-01-26T02:29:35;98326.00;;;1.31;100.00
13661;BME280;6903;49.480;11.102;2023-01-26T02:32:00;98323.56;;;1.27;100.00
13661;BME280;6903;49.480;11.102;2023-01-26T02:34:26;98310.53;;;1.28;100.00
13661;BME280;6903;49.480;11.102;2023-01-26T02:36:59;98315.66;;;1.30;100.00
13661;BME280;6903;49.480;11.102;2023-01-26T02:39:48;98310.63;;;1.25;100.00
13661;BME280;6903;49.480;11.102;2023-01-26T02:42:16;98310.78;;;1.21;100.00
13661;BME280;6903;49.480;11.102;2023-01-26T02:45:00;98312.75;;;1.14;100.00
13661;BME280;6903;49.480;11.102;2023-01-26T02:47:25;98306.91;;;1.09;100.00
13661;BME280;6903;49.480;11.102;2023-01-26T02:49:50;98305.47;;;1.01;100.00
13661;BME280;6903;49.480;11.102;2023-01-26T02:52:19;98299.44;;;1.00;100.00
13661;BME280;6903;49.480;11.102;2023-01-26T02:54:44;98295.22;;;0.98;100.00
13661;BME280;6903;49.480;11.102;2023-01-26T02:57:28;98288.31;;;0.97;100.00
13661;BME280;6903;49.480;11.102;2023-01-26T02:59:54;98296.28;;;0.92;100.00
13661;BME280;6903;49.480;11.102;2023-01-26T03:02:19;98295.41;;;0.92;100.00
13661;BME280;6903;49.480;11.102;2023-01-26T03:04:45;98287.31;;;1.01;100.00
13661;BME280;6903;49.480;11.102;2023-01-26T03:07:10;98286.34;;;1.03;100.00
13661;BME280;6903;49.480;11.102;2023-01-26T03:09:36;98283.03;;;1.00;100.00
13661;BME280;6903;49.480;11.102;2023-01-26T03:12:01;98279.69;;;0.96;100.00
13661;BME280;6903;49.480;11.102;2023-01-26T03:14:27;98275.19;;;1.01;100.00
13661;BME280;6903;49.480;11.102;2023-01-26T03:16:52;98279.28;;;1.07;100.00
13661;BME280;6903;49.480;11.102;2023-01-26T03:19:17;98279.19;;;1.10;100.00
13661;BME280;6903;49.480;11.102;2023-01-26T03:22:01;98283.44;;;1.12;100.00
13661;BME280;6903;49.480;11.102;2023-01-26T03:24:45;98272.00;;;1.16;100.00
13661;BME280;6903;49.480;11.102;2023-01-26T03:27:40;98278.00;;;1.18;100.00
13661;BME280;6903;49.480;11.102;2023-01-26T03:30:06;98275.22;;;1.23;100.00
13661;BME280;6903;49.480;11.102;2023-01-26T03:32:32;98274.34;;;1.24;100.00
13661;BME280;6903;49.480;11.102;2023-01-26T03:34:57;98263.94;;;1.24;100.00
13661;BME280;6903;49.480;11.102;2023-01-26T03:37:22;98265.56;;;1.26;100.00
13661;BME280;6903;49.480;11.102;2023-01-26T03:39:49;98273.38;;;1.26;100.00
13661;BME280;6903;49.480;11.102;2023-01-26T03:42:34;98263.78;;;1.28;100.00
13661;BME280;6903;49.480;11.102;2023-01-26T03:45:18;98263.78;;;1.28;100.00
13661;BME280;6903;49.480;11.102;2023-01-26T03:48:03;98253.59;;;1.22;100.00
13661;BME280;6903;49.480;11.102;2023-01-26T03:50:47;98253.66;;;1.21;100.00
13661;BME280;6903;49.480;11.102;2023-01-26T03:53:31;98258.06;;;1.19;100.00
13661;BME280;6903;49.480;11.102;2023-01-26T03:56:15;98255.38;;;1.22;100.00
13661;BME280;6903;49.480;11.102;2023-01-26T03:58:51;98259.47;;;1.27;100.00
13661;BME280;6903;49.480;11.102;2023-01-26T04:01:18;98256.94;;;1.26;100.00
13661;BME280;6903;49.480;11.102;2023-01-26T04:03:51;98261.22;;;1.27;100.00
13661;BME280;6903;49.480;11.102;2023-01-26T04:06:36;98255.91;;;1.30;100.00
13661;BME280;6903;49.480;11.102;2023-01-26T04:09:21;98248.94;;;1.32;100.00
13661;BME280;6903;49.480;11.102;2023-01-26T04:11:46;98254.06;;;1.33;100.00
13661;BME280;6903;49.480;11.102;2023-01-26T04:14:13;98246.25;;;1.33;100.00
13661;BME280;6903;49.480;11.102;2023-01-26T04:16:58;98250.41;;;1.37;100.00
13661;BME280;6903;49.480;11.102;2023-01-26T04:19:43;98253.88;;;1.38;100.00
13661;BME280;6903;49.480;11.102;2023-01-26T04:22:26;98251.22;;;1.39;100.00
13661;BME280;6903;49.480;11.102;2023-01-26T04:24:52;98259.06;;;1.38;100.00
13661;BME280;6903;49.480;11.102;2023-01-26T04:27:18;98247.88;;;1.36;100.00
13661;BME280;6903;49.480;11.102;2023-01-26T04:29:43;98248.94;;;1.32;100.00
13661;BME280;6903;49.480;11.102;2023-01-26T04:32:08;98258.69;;;1.25;100.00
13661;BME280;6903;49.480;11.102;2023-01-26T04:34:34;98259.75;;;1.20;100.00
13661;BME280;6903;49.480;11.102;2023-01-26T04:36:59;98259.75;;;1.20;100.00
13661;BME280;6903;49.480;11.102;2023-01-26T04:39:24;98257.22;;;1.18;100.00
13661;BME280;6903;49.480;11.102;2023-01-26T04:41:49;98251.28;;;1.15;100.00
13661;BME280;6903;49.480;11.102;2023-01-26T04:44:15;98253.81;;;1.16;100.00
13661;BME280;6903;49.480;11.102;2023-01-26T04:46:41;98254.63;;;1.18;100.00
13661;BME280;6903;49.480;11.102;2023-01-26T04:49:06;98254.69;;;1.17;100.00
13661;BME280;6903;49.480;11.102;2023-01-26T04:51:32;98251.22;;;1.16;100.00
13661;BME280;6903;49.480;11.102;2023-01-26T04:53:57;98245.91;;;1.19;100.00
13661;BME280;6903;49.480;11.102;2023-01-26T04:56:25;98251.00;;;1.22;100.00
13661;BME280;6903;49.480;11.102;2023-01-26T04:58:51;98250.13;;;1.23;100.00
13661;BME280;6903;49.480;11.102;2023-01-26T05:01:17;98254.31;;;1.26;100.00
13661;BME280;6903;49.480;11.102;2023-01-26T05:03:42;98243.94;;;1.26;100.00
13661;BME280;6903;49.480;11.102;2023-01-26T05:06:08;98239.66;;;1.25;100.00
13661;BME280;6903;49.480;11.102;2023-01-26T05:08:33;98238.81;;;1.24;100.00
13661;BME280;6903;49.480;11.102;2023-01-26T05:10:58;98239.59;;;1.26;100.00
13661;BME280;6903;49.480;11.102;2023-01-26T05:13:24;98239.66;;;1.25;100.00
13661;BME280;6903;49.480;11.102;2023-01-26T05:15:49;98256.19;;;1.22;100.00
13661;BME280;6903;49.480;11.102;2023-01-26T05:18:14;98249.31;;;1.21;100.00
13661;BME280;6903;49.480;11.102;2023-01-26T05:20:39;98250.34;;;1.17;100.00
13661;BME280;6903;49.480;11.102;2023-01-26T05:23:05;98248.63;;;1.16;100.00
13661;BME280;6903;49.480;11.102;2023-01-26T05:25:30;98258.13;;;1.17;100.00
13661;BME280;6903;49.480;11.102;2023-01-26T05:27:55;98250.41;;;1.16;100.00
13661;BME280;6903;49.480;11.102;2023-01-26T05:30:21;98257.41;;;1.14;100.00
13661;BME280;6903;49.480;11.102;2023-01-26T05:32:46;98251.84;;;1.23;100.00
13661;BME280;6903;49.480;11.102;2023-01-26T05:35:11;98252.78;;;1.22;100.00
13661;BME280;6903;49.480;11.102;2023-01-26T05:37:37;98258.06;;;1.19;100.00
13661;BME280;6903;49.480;11.102;2023-01-26T05:40:03;98252.88;;;1.19;100.00
13661;BME280;6903;49.480;11.102;2023-01-26T05:42:28;98254.56;;;1.20;100.00
13661;BME280;6903;49.480;11.102;2023-01-26T05:44:54;98255.38;;;1.22;100.00
13661;BME280;6903;49.480;11.102;2023-01-26T05:47:19;98255.38;;;1.22;100.00
13661;BME280;6903;49.480;11.102;2023-01-26T05:49:45;98255.31;;;1.23;100.00
13661;BME280;6903;49.480;11.102;2023-01-26T05:52:13;98258.75;;;1.24;100.00
13661;BME280;6903;49.480;11.102;2023-01-26T05:54:38;98263.03;;;1.25;100.00
13661;BME280;6903;49.480;11.102;2023-01-26T05:57:04;98266.63;;;1.21;100.00
13661;BME280;6903;49.480;11.102;2023-01-26T05:59:29;98259.03;;;1.16;100.00
13661;BME280;6903;49.480;11.102;2023-01-26T06:01:56;98259.09;;;1.15;100.00
13661;BME280;6903;49.480;11.102;2023-01-26T06:04:22;98252.09;;;1.17;100.00
13661;BME280;6903;49.480;11.102;2023-01-26T06:06:47;98254.91;;;1.11;100.00
13661;BME280;6903;49.480;11.102;2023-01-26T06:09:12;98257.56;;;1.09;100.00
13661;BME280;6903;49.480;11.102;2023-01-26T06:11:37;98251.34;;;1.13;100.00
13661;BME280;6903;49.480;11.102;2023-01-26T06:14:03;98253.78;;;1.18;100.00
13661;BME280;6903;49.480;11.102;2023-01-26T06:16:28;98256.97;;;1.24;100.00
13661;BME280;6903;49.480;11.102;2023-01-26T06:18:54;98247.22;;;1.31;100.00
13661;BME280;6903;49.480;11.102;2023-01-26T06:21:19;98249.63;;;1.35;100.00
13661;BME280;6903;49.480;11.102;2023-01-26T06:23:44;98252.97;;;1.39;100.00
13661;BME280;6903;49.480;11.102;2023-01-26T06:26:10;98244.28;;;1.40;100.00
13661;BME280;6903;49.480;11.102;2023-01-26T06:28:35;98250.38;;;1.39;100.00
13661;BME280;6903;49.480;11.102;2023-01-26T06:31:06;98252.91;;;1.40;100.00
13661;BME280;6903;49.480;11.102;2023-01-26T06:33:33;98248.44;;;1.44;100.00
13661;BME280;6903;49.480;11.102;2023-01-26T06:36:07;98250.91;;;1.47;100.00
13661;BME280;6903;49.480;11.102;2023-01-26T06:38:34;98256.06;;;1.48;100.00
13661;BME280;6903;49.480;11.102;2023-01-26T06:41:00;98250.09;;;1.47;100.00
13661;BME280;6903;49.480;11.102;2023-01-26T06:43:30;98255.38;;;1.43;100.00
13661;BME280;6903;49.480;11.102;2023-01-26T06:45:56;98259.94;;;1.38;100.00
13661;BME280;6903;49.480;11.102;2023-01-26T06:48:22;98261.97;;;1.30;100.00
13661;BME280;6903;49.480;11.102;2023-01-26T06:50:50;98249.50;;;1.17;100.00
13661;BME280;6903;49.480;11.102;2023-01-26T06:53:29;98251.22;;;1.16;100.00
13661;BME280;6903;49.480;11.102;2023-01-26T06:55:57;98251.91;;;0.98;100.00
13661;BME280;6903;49.480;11.102;2023-01-26T06:58:22;98248.31;;;1.02;100.00
13661;BME280;6903;49.480;11.102;2023-01-26T07:00:48;98252.81;;;0.97;100.00
13661;BME280;6903;49.480;11.102;2023-01-26T07:03:13;98242.09;;;1.06;100.00
13661;BME280;6903;49.480;11.102;2023-01-26T07:05:39;98244.28;;;1.17;100.00
13661;BME280;6903;49.480;11.102;2023-01-26T07:08:04;98256.16;;;1.24;100.00
13661;BME280;6903;49.480;11.102;2023-01-26T07:10:31;98242.88;;;1.31;100.00
13661;BME280;6903;49.480;11.102;2023-01-26T07:12:57;98250.47;;;1.36;100.00
13661;BME280;6903;49.480;11.102;2023-01-26T07:15:22;98249.47;;;1.40;100.00
13661;BME280;6903;49.480;11.102;2023-01-26T07:17:47;98251.94;;;1.43;100.00
13661;BME280;6903;49.480;11.102;2023-01-26T07:20:13;98256.59;;;1.35;100.00
13661;BME280;6903;49.480;11.102;2023-01-26T07:22:38;98250.66;;;1.31;100.00
13661;BME280;6903;49.480;11.102;2023-01-26T07:25:04;98248.31;;;1.25;100.00
13661;BME280;6903;49.480;11.102;2023-01-26T07:27:29;98246.66;;;1.23;100.00
13661;BME280;6903;49.480;11.102;2023-01-26T07:29:54;98248.50;;;1.19;100.00
13661;BME280;6903;49.480;11.102;2023-01-26T07:32:20;98258.22;;;1.14;100.00
13661;BME280;6903;49.480;11.102;2023-01-26T07:34:45;98253.09;;;1.13;100.00
13661;BME280;6903;49.480;11.102;2023-01-26T07:37:10;98252.44;;;1.08;100.00
13661;BME280;6903;49.480;11.102;2023-01-26T07:39:36;98250.63;;;1.10;100.00
13661;BME280;6903;49.480;11.102;2023-01-26T07:42:01;98242.72;;;1.13;100.00
13661;BME280;6903;49.480;11.102;2023-01-26T07:44:26;98245.25;;;1.14;100.00
13661;BME280;6903;49.480;11.102;2023-01-26T07:46:52;98245.25;;;1.14;100.00
13661;BME280;6903;49.480;11.102;2023-01-26T07:49:18;98240.03;;;1.16;100.00
13661;BME280;6903;49.480;11.102;2023-01-26T07:51:43;98237.38;;;1.17;100.00
13661;BME280;6903;49.480;11.102;2023-01-26T07:54:10;98242.63;;;1.16;100.00
13661;BME280;6903;49.480;11.102;2023-01-26T07:56:36;98241.88;;;1.12;100.00
13661;BME280;6903;49.480;11.102;2023-01-26T07:59:02;98240.16;;;1.11;100.00
13661;BME280;6903;49.480;11.102;2023-01-26T08:01:27;98245.47;;;1.08;100.00
13661;BME280;6903;49.480;11.102;2023-01-26T08:03:53;98246.94;;;1.15;100.00
13661;BME280;6903;49.480;11.102;2023-01-26T08:06:19;98243.50;;;1.15;100.00
13661;BME280;6903;49.480;11.102;2023-01-26T08:08:46;98245.16;;;1.17;100.00
13661;BME280;6903;49.480;11.102;2023-01-26T08:11:15;98241.59;;;1.20;100.00
13661;BME280;6903;49.480;11.102;2023-01-26T08:13:41;98239.97;;;1.17;100.00
13661;BME280;6903;49.480;11.102;2023-01-26T08:16:08;98244.19;;;1.20;100.00
13661;BME280;6903;49.480;11.102;2023-01-26T08:18:36;98238.94;;;1.21;100.00
13661;BME280;6903;49.480;11.102;2023-01-26T08:21:02;98245.03;;;1.20;100.00
13661;BME280;6903;49.480;11.102;2023-01-26T08:23:27;98239.66;;;1.25;100.00
13661;BME280;6903;49.480;11.102;2023-01-26T08:25:53;98234.28;;;1.29;100.00
13661;BME280;6903;49.480;11.102;2023-01-26T08:28:18;98234.03;;;1.35;100.00
13661;BME280;6903;49.480;11.102;2023-01-26T08:30:43;98230.50;;;1.38;100.00
13661;BME280;6903;49.480;11.102;2023-01-26T08:33:09;98228.69;;;1.40;100.00
13661;BME280;6903;49.480;11.102;2023-01-26T08:35:34;98241.56;;;1.43;100.00
13661;BME280;6903;49.480;11.102;2023-01-26T08:38:00;98238.09;;;1.42;100.00
13661;BME280;6903;49.480;11.102;2023-01-26T08:40:25;98240.72;;;1.42;100.00
13661;BME280;6903;49.480;11.102;2023-01-26T08:42:51;98236.44;;;1.41;100.00
13661;BME280;6903;49.480;11.102;2023-01-26T08:45:16;98239.72;;;1.45;100.00
13661;BME280;6903;49.480;11.102;2023-01-26T08:47:42;98236.38;;;1.43;100.00
13661;BME280;6903;49.480;11.102;2023-01-26T08:50:08;98236.44;;;1.41;100.00
13661;BME280;6903;49.480;11.102;2023-01-26T08:52:33;98238.03;;;1.44;100.00
13661;BME280;6903;49.480;11.102;2023-01-26T08:54:59;98238.84;;;1.46;100.00
13661;BME280;6903;49.480;11.102;2023-01-26T08:57:25;98235.25;;;1.48;100.00
13661;BME280;6903;49.480;11.102;2023-01-26T08:59:50;98236.00;;;1.52;100.00
13661;BME280;6903;49.480;11.102;2023-01-26T09:02:15;98242.84;;;1.55;100.00
13661;BME280;6903;49.480;11.102;2023-01-26T09:04:41;98241.69;;;1.62;100.00
13661;BME280;6903;49.480;11.102;2023-01-26T09:07:06;98232.13;;;1.62;100.00
13661;BME280;6903;49.480;11.102;2023-01-26T09:09:32;98231.47;;;1.57;100.00
13661;BME280;6903;49.480;11.102;2023-01-26T09:11:57;98235.06;;;1.53;100.00
13661;BME280;6903;49.480;11.102;2023-01-26T09:14:22;98230.63;;;1.57;100.00
13661;BME280;6903;49.480;11.102;2023-01-26T09:16:48;98231.47;;;1.57;100.00
13661;BME280;6903;49.480;11.102;2023-01-26T09:19:13;98240.66;;;1.66;100.00
13661;BME280;6903;49.480;11.102;2023-01-26T09:21:39;98243.00;;;1.72;100.00
13661;BME280;6903;49.480;11.102;2023-01-26T09:24:04;98242.41;;;1.65;100.00
13661;BME280;6903;49.480;11.102;2023-01-26T09:26:30;98250.16;;;1.67;100.00
13661;BME280;6903;49.480;11.102;2023-01-26T09:28:55;98253.47;;;1.70;100.00
13661;BME280;6903;49.480;11.102;2023-01-26T09:31:20;98258.59;;;1.72;100.00
13661;BME280;6903;49.480;11.102;2023-01-26T09:33:47;98251.72;;;1.71;100.00
13661;BME280;6903;49.480;11.102;2023-01-26T09:36:13;98247.59;;;1.65;100.00
13661;BME280;6903;49.480;11.102;2023-01-26T09:38:38;98246.69;;;1.66;100.00
13661;BME280;6903;49.480;11.102;2023-01-26T09:41:21;98243.00;;;1.72;100.00
13661;BME280;6903;49.480;11.102;2023-01-26T09:43:56;98247.47;;;1.68;100.00
13661;BME280;6903;49.480;11.102;2023-01-26T09:47:06;98250.75;;;1.73;100.00
13661;BME280;6903;49.480;11.102;2023-01-26T09:49:27;98250.81;;;1.72;100.00
13661;BME280;6903;49.480;11.102;2023-01-26T09:52:05;98258.78;;;1.67;100.00
13661;BME280;6903;49.480;11.102;2023-01-26T09:54:38;98256.00;;;1.72;100.00
13661;BME280;6903;49.480;11.102;2023-01-26T09:57:14;98253.53;;;1.69;100.00
13661;BME280;6903;49.480;11.102;2023-01-26T09:59:47;98252.56;;;1.71;100.00
13661;BME280;6903;49.480;11.102;2023-01-26T10:04:52;98248.41;;;1.67;100.00
13661;BME280;6903;49.480;11.102;2023-01-26T10:07:20;98246.22;;;1.78;100.00
13661;BME280;6903;49.480;11.102;2023-01-26T10:09:48;98240.97;;;1.80;100.00
13661;BME280;6903;49.480;11.102;2023-01-26T10:15:06;98252.22;;;1.80;100.00
13661;BME280;6903;49.480;11.102;2023-01-26T10:17:37;98250.28;;;1.85;100.00
13661;BME280;6903;49.480;11.102;2023-01-26T10:22:45;98246.69;;;1.88;100.00
13661;BME280;6903;49.480;11.102;2023-01-26T10:25:15;98237.75;;;1.95;100.00
13661;BME280;6903;49.480;11.102;2023-01-26T10:27:42;98238.28;;;2.03;100.00
13661;BME280;6903;49.480;11.102;2023-01-26T10:30:12;98239.56;;;2.13;100.00
13661;BME280;6903;49.480;11.102;2023-01-26T10:32:41;98238.28;;;2.03;100.00
13661;BME280;6903;49.480;11.102;2023-01-26T10:35:18;98237.22;;;2.07;100.00
13661;BME280;6903;49.480;11.102;2023-01-26T10:37:44;98246.69;;;2.09;100.00
13661;BME280;6903;49.480;11.102;2023-01-26T10:40:10;98233.47;;;2.14;100.00
13661;BME280;6903;49.480;11.102;2023-01-26T10:42:36;98234.38;;;2.13;100.00
13661;BME280;6903;49.480;11.102;2023-01-26T10:45:05;98230.88;;;2.14;100.00
13661;BME280;6903;49.480;11.102;2023-01-26T10:47:31;98228.88;;;2.20;100.00
13661;BME280;6903;49.480;11.102;2023-01-26T10:50:20;98219.13;;;2.25;100.00
13661;BME280;6903;49.480;11.102;2023-01-26T10:53:02;98220.06;;;2.23;100.00
13661;BME280;6903;49.480;11.102;2023-01-26T10:55:30;98210.59;;;2.22;100.00
13661;BME280;6903;49.480;11.102;2023-01-26T10:57:56;98205.38;;;2.22;100.00
13661;BME280;6903;49.480;11.102;2023-01-26T11:00:31;98207.00;;;2.24;100.00
13661;BME280;6903;49.480;11.102;2023-01-26T11:03:04;98207.00;;;2.24;100.00
13661;BME280;6903;49.480;11.102;2023-01-26T11:05:30;98203.63;;;2.22;100.00
13661;BME280;6903;49.480;11.102;2023-01-26T11:07:56;98203.63;;;2.22;100.00
13661;BME280;6903;49.480;11.102;2023-01-26T11:10:29;98203.63;;;2.22;100.00
13661;BME280;6903;49.480;11.102;2023-01-26T11:13:14;98203.63;;;2.22;100.00
13661;BME280;6903;49.480;11.102;2023-01-26T11:16:00;98200.78;;;2.28;100.00
13661;BME280;6903;49.480;11.102;2023-01-26T11:18:37;98208.44;;;2.31;100.00
13661;BME280;6903;49.480;11.102;2023-01-26T11:21:28;98195.56;;;2.08;100.00
13661;BME280;6903;49.480;11.102;2023-01-26T11:24:07;98185.69;;;1.96;100.00
13661;BME280;6903;49.480;11.102;2023-01-26T11:29:57;98188.75;;;2.06;100.00
13661;BME280;6903;49.480;11.102;2023-01-26T11:38:19;98181.47;;;2.14;100.00
13661;BME280;6903;49.480;11.102;2023-01-26T11:41:14;98190.81;;;2.18;100.00
13661;BME280;6903;49.480;11.102;2023-01-26T11:46:37;98170.66;;;2.23;100.00
13661;BME280;6903;49.480;11.102;2023-01-26T11:49:39;98163.50;;;2.28;100.00
13661;BME280;6903;49.480;11.102;2023-01-26T12:00:05;98158.34;;;2.46;100.00
13661;BME280;6903;49.480;11.102;2023-01-26T12:02:32;98150.72;;;2.42;100.00
13661;BME280;6903;49.480;11.102;2023-01-26T12:05:01;98157.38;;;2.29;100.00
13661;BME280;6903;49.480;11.102;2023-01-26T12:07:46;98158.94;;;2.13;100.00
13661;BME280;6903;49.480;11.102;2023-01-26T12:10:23;98160.75;;;1.91;100.00
13661;BME280;6903;49.480;11.102;2023-01-26T12:12:57;98148.59;;;1.71;100.00
13661;BME280;6903;49.480;11.102;2023-01-26T12:15:27;98152.31;;;1.66;100.00
13661;BME280;6903;49.480;11.102;2023-01-26T12:18:26;98152.44;;;1.63;100.00
13661;BME280;6903;49.480;11.102;2023-01-26T12:20:59;98148.13;;;1.62;100.00
13661;BME280;6903;49.480;11.102;2023-01-26T12:23:31;98133.38;;;1.62;100.00
13661;BME280;6903;49.480;11.102;2023-01-26T12:26:06;98140.06;;;1.68;100.00
13661;BME280;6903;49.480;11.102;2023-01-26T12:28:39;98141.25;;;1.61;100.00
13661;BME280;6903;49.480;11.102;2023-01-26T12:31:22;98134.94;;;1.66;100.00
13661;BME280;6903;49.480;11.102;2023-01-26T12:33:52;98133.97;;;1.69;100.00
13661;BME280;6903;49.480;11.102;2023-01-26T12:36:40;98128.38;;;1.78;100.00
13661;BME280;6903;49.480;11.102;2023-01-26T12:39:09;98125.53;;;1.84;100.00
13661;BME280;6903;49.480;11.102;2023-01-26T12:44:36;98114.88;;;1.90;100.00
13661;BME280;6903;49.480;11.102;2023-01-26T12:47:23;98110.78;;;1.84;100.00
13661;BME280;6903;49.480;11.102;2023-01-26T12:49:59;98113.97;;;1.91;100.00
13661;BME280;6903;49.480;11.102;2023-01-26T12:52:32;98115.66;;;1.92;100.00
13661;BME280;6903;49.480;11.102;2023-01-26T12:58:02;98106.16;;;1.91;100.00
13661;BME280;6903;49.480;11.102;2023-01-26T13:00:34;98103.72;;;1.88;100.00
13661;BME280;6903;49.480;11.102;2023-01-26T13:03:13;98102.53;;;1.75;100.00
13661;BME280;6903;49.480;11.102;2023-01-26T13:05:54;98104.59;;;1.67;100.00
13661;BME280;6903;49.480;11.102;2023-01-26T13:10:56;98102.75;;;1.28;100.00
13661;BME280;6903;49.480;11.102;2023-01-26T13:13:29;98102.81;;;1.27;100.00
13661;BME280;6903;49.480;11.102;2023-01-26T13:18:53;98103.41;;;1.33;100.00
13661;BME280;6903;49.480;11.102;2023-01-26T13:23:57;98099.94;;;1.55;100.00
13661;BME280;6903;49.480;11.102;2023-01-26T13:31:51;98104.34;;;1.73;100.00
13661;BME280;6903;49.480;11.102;2023-01-26T13:34:21;98099.47;;;1.65;100.00
13661;BME280;6903;49.480;11.102;2023-01-26T13:36:50;98109.41;;;1.76;100.00
13661;BME280;6903;49.480;11.102;2023-01-26T13:39:30;98102.97;;;1.84;100.00
13661;BME280;6903;49.480;11.102;2023-01-26T13:41:57;98101.75;;;1.93;100.00
13661;BME280;6903;49.480;11.102;2023-01-26T13:44:36;98110.41;;;1.93;100.00
13661;BME280;6903;49.480;11.102;2023-01-26T13:47:11;98106.03;;;1.94;100.00
13661;BME280;6903;49.480;11.102;2023-01-26T13:49:38;98101.91;;;1.90;100.00
13661;BME280;6903;49.480;11.102;2023-01-26T13:52:16;98099.16;;;1.93;100.00
13661;BME280;6903;49.480;11.102;2023-01-26T13:54:43;98098.38;;;1.91;100.00
13661;BME280;6903;49.480;11.102;2023-01-26T13:57:19;98092.66;;;1.83;100.00
13661;BME280;6903;49.480;11.102;2023-01-26T13:59:56;98093.81;;;1.76;100.00